sensor_id;sensor_type;location;lat;lon;timestamp;pressure;altitude;pressure_sealevel;temperature;humidity
9035;BME280;4552;43.422;24.592;2023-12-07T00:27:58;99868.63;;;3.34;100.00
9035;BME280;4552;43.422;24.592;2023-12-07T00:30:25;99860.72;;;3.22;100.00
9035;BME280;4552;43.422;24.592;2023-12-07T00:32:52;99871.13;;;3.28;100.00
9035;BME280;4552;43.422;24.592;2023-12-07T00:35:28;99866.00;;;3.31;100.00
9035;BME280;4552;43.422;24.592;2023-12-07T00:37:55;99874.69;;;3.36;100.00
9035;BME280;4552;43.422;24.592;2023-12-07T00:40:25;99882.38;;;3.33;100.00
9035;BME280;4552;43.422;24.592;2023-12-07T00:42:52;99891.06;;;3.35;100.00
9035;BME280;4552;43.422;24.592;2023-12-07T00:55:39;99890.94;;;3.26;100.00
9035;BME280;4552;43.422;24.592;2023-12-07T00:58:15;99895.31;;;3.32;100.00
9035;BME280;4552;43.422;24.592;2023-12-07T01:00:45;99900.44;;;3.30;100.00
9035;BME280;4552;43.422;24.592;2023-12-07T01:03:12;99890.91;;;3.25;100.00
9035;BME280;4552;43.422;24.592;2023-12-07T01:05:41;99884.06;;;3.28;100.00
9035;BME280;4552;43.422;24.592;2023-12-07T01:08:08;99884.81;;;3.23;100.00
9035;BME280;4552;43.422;24.592;2023-12-07T01:10:35;99871.84;;;3.18;100.00
9035;BME280;4552;43.422;24.592;2023-12-07T01:13:14;99894.22;;;3.18;100.00
9035;BME280;4552;43.422;24.592;2023-12-07T01:19:03;99887.22;;;3.09;100.00
9035;BME280;4552;43.422;24.592;2023-12-07T01:21:32;99892.59;;;3.24;100.00
9035;BME280;4552;43.422;24.592;2023-12-07T01:23:59;99896.97;;;3.27;100.00
9035;BME280;4552;43.422;24.592;2023-12-07T01:26:26;99890.78;;;3.17;100.00
9035;BME280;4552;43.422;24.592;2023-12-07T01:39:02;99874.56;;;3.27;100.00
9035;BME280;4552;43.422;24.592;2023-12-07T01:41:30;99872.59;;;3.11;100.00
9035;BME280;4552;43.422;24.592;2023-12-07T01:43:56;99875.06;;;3.02;100.00
9035;BME280;4552;43.422;24.592;2023-12-07T01:46:27;99872.41;;;2.98;100.00
9035;BME280;4552;43.422;24.592;2023-12-07T01:48:56;99874.28;;;3.09;100.00
9035;BME280;4552;43.422;24.592;2023-12-07T01:51:23;99883.72;;;3.07;100.00
9035;BME280;4552;43.422;24.592;2023-12-07T01:53:50;99874.00;;;2.90;100.00
9035;BME280;4552;43.422;24.592;2023-12-07T01:56:33;99885.31;;;2.96;100.00
9035;BME280;4552;43.422;24.592;2023-12-07T01:59:24;99887.16;;;3.06;100.00
9035;BME280;4552;43.422;24.592;2023-12-07T02:02:05;99871.47;;;2.94;100.00
9035;BME280;4552;43.422;24.592;2023-12-07T02:04:58;99880.44;;;3.17;100.00
9035;BME280;4552;43.422;24.592;2023-12-07T02:07:46;99889.06;;;3.19;100.00
9035;BME280;4552;43.422;24.592;2023-12-07T02:10:13;99877.75;;;3.10;100.00
9035;BME280;4552;43.422;24.592;2023-12-07T02:12:58;99878.38;;;2.95;100.00
9035;BME280;4552;43.422;24.592;2023-12-07T02:15:25;99900.81;;;2.96;100.00
9035;BME280;4552;43.422;24.592;2023-12-07T02:17:59;99904.31;;;3.01;100.00
9035;BME280;4552;43.422;24.592;2023-12-07T02:20:54;99888.63;;;2.89;100.00
9035;BME280;4552;43.422;24.592;2023-12-07T02:23:27;99895.69;;;2.99;100.00
9035;BME280;4552;43.422;24.592;2023-12-07T02:43:05;99889.88;;;3.14;100.00
9035;BME280;4552;43.422;24.592;2023-12-07T02:45:33;99902.00;;;3.19;100.00
9035;BME280;4552;43.422;24.592;2023-12-07T02:48:09;99897.56;;;3.09;100.00
9035;BME280;4552;43.422;24.592;2023-12-07T02:50:51;99900.19;;;3.12;100.00
9035;BME280;4552;43.422;24.592;2023-12-07T02:53:18;99902.91;;;3.21;100.00
9035;BME280;4552;43.422;24.592;2023-12-07T02:55:45;99895.09;;;3.17;100.00
9035;BME280;4552;43.422;24.592;2023-12-07T02:58:23;99906.34;;;3.20;100.00
9035;BME280;4552;43.422;24.592;2023-12-07T03:07:35;99904.72;;;3.25;100.00
9035;BME280;4552;43.422;24.592;2023-12-07T03:10:02;99876.78;;;3.03;100.00
9035;BME280;4552;43.422;24.592;2023-12-07T03:12:29;99892.38;;;3.09;100.00
9035;BME280;4552;43.422;24.592;2023-12-07T03:15:19;99899.34;;;3.15;100.00
9035;BME280;4552;43.422;24.592;2023-12-07T03:17:46;99918.34;;;3.15;100.00
9035;BME280;4552;43.422;24.592;2023-12-07T03:20:22;99908.97;;;3.23;100.00
9035;BME280;4552;43.422;24.592;2023-12-07T03:22:49;99901.97;;;3.16;100.00
9035;BME280;4552;43.422;24.592;2023-12-07T03:25:27;99897.50;;;3.06;100.00
9035;BME280;4552;43.422;24.592;2023-12-07T03:27:54;99904.44;;;3.09;100.00
9035;BME280;4552;43.422;24.592;2023-12-07T03:50:35;99894.19;;;3.16;100.00
9035;BME280;4552;43.422;24.592;2023-12-07T03:53:02;99916.72;;;3.22;100.00
9035;BME280;4552;43.422;24.592;2023-12-07T03:55:29;99893.47;;;3.23;100.00
9035;BME280;4552;43.422;24.592;2023-12-07T03:57:58;99905.53;;;3.24;100.00
9035;BME280;4552;43.422;24.592;2023-12-07T04:10:32;99915.00;;;3.22;100.00
9035;BME280;4552;43.422;24.592;2023-12-07T04:12:59;99919.38;;;3.26;100.00
9035;BME280;4552;43.422;24.592;2023-12-07T04:29:00;99909.75;;;3.19;100.00
9035;BME280;4552;43.422;24.592;2023-12-07T05:47:56;99994.25;;;3.20;100.00
9035;BME280;4552;43.422;24.592;2023-12-07T05:50:23;99989.13;;;3.23;100.00
9035;BME280;4552;43.422;24.592;2023-12-07T05:52:50;99987.50;;;3.28;100.00
9035;BME280;4552;43.422;24.592;2023-12-07T05:58:13;99989.47;;;3.44;100.00
9035;BME280;4552;43.422;24.592;2023-12-07T06:04:37;99997.22;;;3.44;100.00
9035;BME280;4552;43.422;24.592;2023-12-07T06:07:08;99998.09;;;3.43;100.00
9035;BME280;4552;43.422;24.592;2023-12-07T06:09:35;99992.97;;;3.46;100.00
9035;BME280;4552;43.422;24.592;2023-12-07T06:12:03;99976.28;;;3.28;100.00
9035;BME280;4552;43.422;24.592;2023-12-07T06:14:33;100005.09;;;3.50;100.00
9035;BME280;4552;43.422;24.592;2023-12-07T06:17:28;100001.44;;;3.39;100.00
9035;BME280;4552;43.422;24.592;2023-12-07T06:19:57;100008.38;;;3.40;100.00
9035;BME280;4552;43.422;24.592;2023-12-07T06:22:44;100003.03;;;3.28;100.00
9035;BME280;4552;43.422;24.592;2023-12-07T06:25:10;100004.00;;;3.36;100.00
9035;BME280;4552;43.422;24.592;2023-12-07T06:27:51;100007.66;;;3.49;100.00
9035;BME280;4552;43.422;24.592;2023-12-07T06:30:20;100011.97;;;3.51;100.00
9035;BME280;4552;43.422;24.592;2023-12-07T06:57:59;100036.13;;;3.50;100.00
9035;BME280;4552;43.422;24.592;2023-12-07T07:00:26;100046.78;;;3.18;100.00
9035;BME280;4552;43.422;24.592;2023-12-07T07:02:53;100047.13;;;3.36;100.00
9035;BME280;4552;43.422;24.592;2023-12-07T07:05:20;100049.06;;;3.50;100.00
9035;BME280;4552;43.422;24.592;2023-12-07T07:07:47;100044.66;;;3.45;100.00
9035;BME280;4552;43.422;24.592;2023-12-07T07:10:16;100047.94;;;3.35;100.00
9035;BME280;4552;43.422;24.592;2023-12-07T07:32:56;100049.88;;;3.46;100.00
9035;BME280;4552;43.422;24.592;2023-12-07T07:35:23;100051.53;;;3.43;100.00
9035;BME280;4552;43.422;24.592;2023-12-07T07:37:50;100056.63;;;3.38;100.00
9035;BME280;4552;43.422;24.592;2023-12-07T07:40:17;100061.00;;;3.42;100.00
9035;BME280;4552;43.422;24.592;2023-12-07T07:52:50;100057.72;;;3.51;100.00
9035;BME280;4552;43.422;24.592;2023-12-07T07:55:17;100052.69;;;3.62;100.00
9035;BME280;4552;43.422;24.592;2023-12-07T08:05:27;100059.09;;;3.85;100.00
9035;BME280;4552;43.422;24.592;2023-12-07T08:07:55;100067.69;;;3.84;100.00
9035;BME280;4552;43.422;24.592;2023-12-07T08:10:22;100063.47;;;3.90;100.00
9035;BME280;4552;43.422;24.592;2023-12-07T08:12:49;100066.63;;;3.70;100.00
9035;BME280;4552;43.422;24.592;2023-12-07T08:15:16;100074.34;;;3.67;100.00
9035;BME280;4552;43.422;24.592;2023-12-07T08:17:43;100080.28;;;3.61;100.00
9035;BME280;4552;43.422;24.592;2023-12-07T08:20:11;100083.97;;;3.77;100.00
9035;BME280;4552;43.422;24.592;2023-12-07T08:26:01;100088.16;;;3.69;100.00
9035;BME280;4552;43.422;24.592;2023-12-07T08:28:28;100090.16;;;3.85;100.00
9035;BME280;4552;43.422;24.592;2023-12-07T08:30:55;100086.44;;;3.68;100.00
9035;BME280;4552;43.422;24.592;2023-12-07T08:33:22;100084.94;;;3.82;100.00
9035;BME280;4552;43.422;24.592;2023-12-07T08:35:49;100087.28;;;3.67;100.00
9035;BME280;4552;43.422;24.592;2023-12-07T08:38:20;100095.69;;;3.53;100.00
9035;BME280;4552;43.422;24.592;2023-12-07T08:47:33;100096.38;;;3.96;100.00
9035;BME280;4552;43.422;24.592;2023-12-07T08:53:58;100090.97;;;3.84;100.00
9035;BME280;4552;43.422;24.592;2023-12-07T08:56:25;100085.81;;;3.84;100.00
9035;BME280;4552;43.422;24.592;2023-12-07T08:58:52;100090.06;;;3.79;100.00
9035;BME280;4552;43.422;24.592;2023-12-07T09:01:19;100079.97;;;3.97;100.00
9035;BME280;4552;43.422;24.592;2023-12-07T09:03:47;100081.88;;;4.10;100.00
9035;BME280;4552;43.422;24.592;2023-12-07T09:06:14;100072.44;;;4.12;100.00
9035;BME280;4552;43.422;24.592;2023-12-07T09:08:41;100074.19;;;4.14;100.00
9035;BME280;4552;43.422;24.592;2023-12-07T09:17:50;100064.34;;;4.52;100.00
9035;BME280;4552;43.422;24.592;2023-12-07T09:20:18;100071.97;;;4.40;100.00
9035;BME280;4552;43.422;24.592;2023-12-07T09:22:46;100073.13;;;4.63;100.00
9035;BME280;4552;43.422;24.592;2023-12-07T09:58:53;100053.31;;;4.71;100.00
9035;BME280;4552;43.422;24.592;2023-12-07T10:01:36;100049.09;;;4.77;100.00
9035;BME280;4552;43.422;24.592;2023-12-07T10:04:18;100031.16;;;4.98;100.00
9035;BME280;4552;43.422;24.592;2023-12-07T10:06:46;100032.03;;;4.97;100.00
9035;BME280;4552;43.422;24.592;2023-12-07T10:22:44;100047.31;;;4.72;100.00
9035;BME280;4552;43.422;24.592;2023-12-07T10:42:10;100035.44;;;4.92;100.00
9035;BME280;4552;43.422;24.592;2023-12-07T10:44:47;100042.22;;;4.81;100.00
9035;BME280;4552;43.422;24.592;2023-12-07T10:47:18;100029.31;;;4.87;100.00
9035;BME280;4552;43.422;24.592;2023-12-07T10:49:51;100029.50;;;5.05;100.00
9035;BME280;4552;43.422;24.592;2023-12-07T10:52:23;100038.25;;;5.16;100.00
9035;BME280;4552;43.422;24.592;2023-12-07T11:01:46;100042.09;;;4.69;100.00
9035;BME280;4552;43.422;24.592;2023-12-07T11:04:14;100048.09;;;4.66;100.00
9035;BME280;4552;43.422;24.592;2023-12-07T11:06:42;100046.28;;;4.58;100.00
9035;BME280;4552;43.422;24.592;2023-12-07T11:09:15;100043.66;;;4.55;100.00
9035;BME280;4552;43.422;24.592;2023-12-07T11:11:47;100046.31;;;4.61;100.00
9035;BME280;4552;43.422;24.592;2023-12-07T11:14:16;100031.72;;;4.69;100.00
9035;BME280;4552;43.422;24.592;2023-12-07T11:16:47;100040.63;;;4.92;100.00
9035;BME280;4552;43.422;24.592;2023-12-07T11:22:22;100047.28;;;4.70;100.00
9035;BME280;4552;43.422;24.592;2023-12-07T11:24:54;100057.59;;;4.66;100.00
9035;BME280;4552;43.422;24.592;2023-12-07T11:27:24;100040.41;;;4.74;100.00
9035;BME280;4552;43.422;24.592;2023-12-07T11:29:51;100037.81;;;4.74;100.00
9035;BME280;4552;43.422;24.592;2023-12-07T11:32:20;100042.88;;;4.63;100.00
9035;BME280;4552;43.422;24.592;2023-12-07T11:34:47;100028.31;;;4.74;100.00
9035;BME280;4552;43.422;24.592;2023-12-07T11:37:15;100036.25;;;4.91;100.00
9035;BME280;4552;43.422;24.592;2023-12-07T11:39:43;100048.44;;;4.95;100.00
9035;BME280;4552;43.422;24.592;2023-12-07T11:42:11;100036.94;;;4.73;100.00
9035;BME280;4552;43.422;24.592;2023-12-07T11:44:40;100040.38;;;4.72;100.00
9035;BME280;4552;43.422;24.592;2023-12-07T11:47:08;100051.88;;;4.97;100.00
9035;BME280;4552;43.422;24.592;2023-12-07T11:49:37;100048.16;;;4.74;100.00
9035;BME280;4552;43.422;24.592;2023-12-07T11:52:14;100042.88;;;4.65;100.00
9035;BME280;4552;43.422;24.592;2023-12-07T11:54:43;100036.84;;;4.64;100.00
9035;BME280;4552;43.422;24.592;2023-12-07T11:57:10;100025.25;;;4.34;100.00
9035;BME280;4552;43.422;24.592;2023-12-07T11:59:38;100039.19;;;4.45;100.00
9035;BME280;4552;43.422;24.592;2023-12-07T12:02:05;100044.28;;;4.39;100.00
9035;BME280;4552;43.422;24.592;2023-12-07T12:04:32;100039.94;;;4.35;100.00
9035;BME280;4552;43.422;24.592;2023-12-07T12:07:00;100028.59;;;4.27;100.00
9035;BME280;4552;43.422;24.592;2023-12-07T12:22:56;100027.38;;;4.68;100.00
9035;BME280;4552;43.422;24.592;2023-12-07T12:38:52;100030.78;;;4.64;100.00
9035;BME280;4552;43.422;24.592;2023-12-07T13:05:07;100049.16;;;4.15;100.00
9035;BME280;4552;43.422;24.592;2023-12-07T13:07:34;100058.72;;;4.17;100.00
9035;BME280;4552;43.422;24.592;2023-12-07T13:10:02;100048.38;;;4.19;100.00
9035;BME280;4552;43.422;24.592;2023-12-07T13:12:29;100058.56;;;4.08;100.00
9035;BME280;4552;43.422;24.592;2023-12-07T13:15:00;100043.69;;;3.94;100.00
9035;BME280;4552;43.422;24.592;2023-12-07T13:17:27;100064.56;;;4.06;100.00
9035;BME280;4552;43.422;24.592;2023-12-07T13:19:54;100062.94;;;4.12;100.00
9035;BME280;4552;43.422;24.592;2023-12-07T13:22:23;100058.22;;;3.84;100.00
9035;BME280;4552;43.422;24.592;2023-12-07T13:24:50;100066.13;;;3.95;100.00
9035;BME280;4552;43.422;24.592;2023-12-07T13:27:21;100073.06;;;3.96;100.00
9035;BME280;4552;43.422;24.592;2023-12-07T13:29:48;100053.06;;;3.86;100.00
9035;BME280;4552;43.422;24.592;2023-12-07T13:32:18;100067.75;;;3.87;100.00
9035;BME280;4552;43.422;24.592;2023-12-07T13:34:46;100079.31;;;4.11;100.00
9035;BME280;4552;43.422;24.592;2023-12-07T13:37:14;100080.88;;;3.97;100.00
9035;BME280;4552;43.422;24.592;2023-12-07T13:46:25;100075.09;;;4.16;100.00
9035;BME280;4552;43.422;24.592;2023-12-07T13:48:52;100081.00;;;4.06;100.00
9035;BME280;4552;43.422;24.592;2023-12-07T13:51:19;100096.34;;;3.94;100.00
9035;BME280;4552;43.422;24.592;2023-12-07T13:53:48;100076.13;;;3.71;100.00
9035;BME280;4552;43.422;24.592;2023-12-07T14:21:55;100112.56;;;3.83;100.00
9035;BME280;4552;43.422;24.592;2023-12-07T14:24:23;100116.03;;;3.85;100.00
9035;BME280;4552;43.422;24.592;2023-12-07T14:26:51;100115.41;;;3.99;100.00
9035;BME280;4552;43.422;24.592;2023-12-07T14:29:18;100117.19;;;4.03;100.00
9035;BME280;4552;43.422;24.592;2023-12-07T14:31:47;100113.53;;;3.91;100.00
9035;BME280;4552;43.422;24.592;2023-12-07T14:34:15;100130.81;;;3.92;100.00
9035;BME280;4552;43.422;24.592;2023-12-07T14:36:42;100127.31;;;3.87;100.00
9035;BME280;4552;43.422;24.592;2023-12-07T14:39:16;100115.81;;;3.70;100.00
9035;BME280;4552;43.422;24.592;2023-12-07T14:48:27;100140.72;;;3.65;100.00
9035;BME280;4552;43.422;24.592;2023-12-07T14:50:53;100148.63;;;3.74;100.00
9035;BME280;4552;43.422;24.592;2023-12-07T14:53:21;100153.25;;;3.91;100.00
9035;BME280;4552;43.422;24.592;2023-12-07T15:33:30;100168.72;;;3.87;100.00
9035;BME280;4552;43.422;24.592;2023-12-07T15:35:58;100160.03;;;3.83;100.00
9035;BME280;4552;43.422;24.592;2023-12-07T15:38:25;100172.53;;;4.10;100.00
9035;BME280;4552;43.422;24.592;2023-12-07T15:40:52;100157.75;;;4.03;100.00
9035;BME280;4552;43.422;24.592;2023-12-07T15:43:22;100183.06;;;4.19;100.00
9035;BME280;4552;43.422;24.592;2023-12-07T15:45:49;100166.63;;;4.17;100.00
9035;BME280;4552;43.422;24.592;2023-12-07T15:48:16;100178.66;;;4.15;100.00
9035;BME280;4552;43.422;24.592;2023-12-07T15:50:45;100186.31;;;4.07;100.00
9035;BME280;4552;43.422;24.592;2023-12-07T15:53:13;100183.75;;;4.09;100.00
9035;BME280;4552;43.422;24.592;2023-12-07T15:55:40;100191.34;;;3.98;100.00
9035;BME280;4552;43.422;24.592;2023-12-07T15:58:10;100187.00;;;3.96;100.00
9035;BME280;4552;43.422;24.592;2023-12-07T16:00:37;100191.56;;;4.12;100.00
9035;BME280;4552;43.422;24.592;2023-12-07T16:03:04;100191.47;;;4.06;100.00
9035;BME280;4552;43.422;24.592;2023-12-07T16:05:32;100193.41;;;4.17;100.00
9035;BME280;4552;43.422;24.592;2023-12-07T16:08:00;100197.88;;;4.29;100.00
9035;BME280;4552;43.422;24.592;2023-12-07T16:10:28;100201.38;;;4.31;100.00
9035;BME280;4552;43.422;24.592;2023-12-07T16:12:55;100203.00;;;4.26;100.00
9035;BME280;4552;43.422;24.592;2023-12-07T16:15:22;100186.41;;;4.15;100.00
9035;BME280;4552;43.422;24.592;2023-12-07T16:17:49;100197.84;;;4.26;100.00
9035;BME280;4552;43.422;24.592;2023-12-07T16:20:16;100183.88;;;4.18;100.00
9035;BME280;4552;43.422;24.592;2023-12-07T16:22:45;100196.31;;;4.40;100.00
9035;BME280;4552;43.422;24.592;2023-12-07T16:32:35;100205.66;;;4.29;100.00
9035;BME280;4552;43.422;24.592;2023-12-07T16:35:03;100189.16;;;4.24;100.00
9035;BME280;4552;43.422;24.592;2023-12-07T16:37:32;100207.34;;;4.28;100.00
9035;BME280;4552;43.422;24.592;2023-12-07T16:39:59;100209.81;;;4.21;100.00
9035;BME280;4552;43.422;24.592;2023-12-07T16:42:26;100202.03;;;4.19;100.00
9035;BME280;4552;43.422;24.592;2023-12-07T16:44:54;100191.53;;;4.10;100.00
9035;BME280;4552;43.422;24.592;2023-12-07T16:47:21;100208.25;;;4.29;100.00
9035;BME280;4552;43.422;24.592;2023-12-07T16:49:54;100200.31;;;4.20;100.00
9035;BME280;4552;43.422;24.592;2023-12-07T16:52:21;100209.97;;;4.30;100.00
9035;BME280;4552;43.422;24.592;2023-12-07T16:54:49;100217.66;;;4.24;100.00
9035;BME280;4552;43.422;24.592;2023-12-07T16:57:15;100213.09;;;4.08;100.00
9035;BME280;4552;43.422;24.592;2023-12-07T16:59:42;100209.63;;;4.09;100.00
9035;BME280;4552;43.422;24.592;2023-12-07T17:02:09;100213.88;;;4.05;100.00
9035;BME280;4552;43.422;24.592;2023-12-07T17:04:36;100220.88;;;4.09;100.00
9035;BME280;4552;43.422;24.592;2023-12-07T17:07:05;100216.28;;;3.95;100.00
9035;BME280;4552;43.422;24.592;2023-12-07T17:09:32;100207.66;;;3.93;100.00
9035;BME280;4552;43.422;24.592;2023-12-07T19:23:27;100246.72;;;3.60;100.00
9035;BME280;4552;43.422;24.592;2023-12-07T19:25:54;100244.91;;;3.54;100.00
9035;BME280;4552;43.422;24.592;2023-12-07T19:28:21;100246.41;;;3.43;100.00
9035;BME280;4552;43.422;24.592;2023-12-07T19:30:49;100252.50;;;3.47;100.00
9035;BME280;4552;43.422;24.592;2023-12-07T19:33:16;100251.66;;;3.46;100.00
9035;BME280;4552;43.422;24.592;2023-12-07T19:35:43;100260.13;;;3.39;100.00
9035;BME280;4552;43.422;24.592;2023-12-07T19:48:20;100238.75;;;3.06;100.00
9035;BME280;4552;43.422;24.592;2023-12-07T19:50:48;100242.19;;;3.05;100.00
9035;BME280;4552;43.422;24.592;2023-12-07T19:53:19;100256.03;;;3.09;100.00
9035;BME280;4552;43.422;24.592;2023-12-07T19:55:50;100264.53;;;3.03;100.00
9035;BME280;4552;43.422;24.592;2023-12-07T19:58:17;100247.25;;;3.01;100.00
9035;BME280;4552;43.422;24.592;2023-12-07T20:00:44;100245.59;;;3.04;100.00
9035;BME280;4552;43.422;24.592;2023-12-07T20:03:11;100244.66;;;2.99;100.00
9035;BME280;4552;43.422;24.592;2023-12-07T20:05:40;100261.38;;;3.18;100.00
9035;BME280;4552;43.422;24.592;2023-12-07T20:08:08;100250.91;;;3.12;100.00
9035;BME280;4552;43.422;24.592;2023-12-07T20:10:37;100273.53;;;3.20;100.00
9035;BME280;4552;43.422;24.592;2023-12-07T20:13:04;100264.91;;;3.21;100.00
9035;BME280;4552;43.422;24.592;2023-12-07T20:15:33;100256.25;;;3.19;100.00
9035;BME280;4552;43.422;24.592;2023-12-07T20:18:03;100271.25;;;3.35;100.00
9035;BME280;4552;43.422;24.592;2023-12-07T20:20:33;100263.19;;;3.20;100.00
9035;BME280;4552;43.422;24.592;2023-12-07T20:29:45;100279.78;;;2.91;100.00
9035;BME280;4552;43.422;24.592;2023-12-07T20:32:12;100286.56;;;2.86;100.00
9035;BME280;4552;43.422;24.592;2023-12-07T20:34:39;100288.16;;;2.81;100.00
9035;BME280;4552;43.422;24.592;2023-12-07T20:37:07;100277.69;;;2.75;100.00
9035;BME280;4552;43.422;24.592;2023-12-07T20:39:34;100274.16;;;2.70;100.00
9035;BME280;4552;43.422;24.592;2023-12-07T20:42:01;100289.09;;;2.85;100.00
9035;BME280;4552;43.422;24.592;2023-12-07T20:44:28;100268.22;;;2.76;100.00
9035;BME280;4552;43.422;24.592;2023-12-07T20:46:56;100274.41;;;2.82;100.00
9035;BME280;4552;43.422;24.592;2023-12-07T20:49:23;100283.78;;;2.77;100.00
9035;BME280;4552;43.422;24.592;2023-12-07T20:51:50;100267.00;;;2.60;100.00
9035;BME280;4552;43.422;24.592;2023-12-07T20:54:17;100286.94;;;2.64;100.00
9035;BME280;4552;43.422;24.592;2023-12-07T20:56:44;100277.59;;;2.71;100.00
9035;BME280;4552;43.422;24.592;2023-12-07T20:59:11;100280.16;;;2.71;100.00
9035;BME280;4552;43.422;24.592;2023-12-07T21:01:42;100282.84;;;2.75;100.00
9035;BME280;4552;43.422;24.592;2023-12-07T21:04:10;100278.50;;;2.73;100.00
9035;BME280;4552;43.422;24.592;2023-12-07T21:06:37;100274.09;;;2.67;100.00
9035;BME280;4552;43.422;24.592;2023-12-07T21:09:04;100264.16;;;2.85;100.00
9035;BME280;4552;43.422;24.592;2023-12-07T21:11:31;100275.19;;;2.80;100.00
9035;BME280;4552;43.422;24.592;2023-12-07T21:13:58;100279.53;;;2.79;100.00
9035;BME280;4552;43.422;24.592;2023-12-07T21:16:25;100284.34;;;2.64;100.00
9035;BME280;4552;43.422;24.592;2023-12-07T21:18:52;100282.78;;;2.72;100.00
9035;BME280;4552;43.422;24.592;2023-12-07T21:21:20;100273.09;;;2.62;100.00
9035;BME280;4552;43.422;24.592;2023-12-07T21:23:47;100272.22;;;2.62;100.00
9035;BME280;4552;43.422;24.592;2023-12-07T21:26:14;100278.44;;;2.70;100.00
9035;BME280;4552;43.422;24.592;2023-12-07T21:28:41;100281.91;;;2.70;100.00
9035;BME280;4552;43.422;24.592;2023-12-07T21:31:08;100273.97;;;2.63;100.00
9035;BME280;4552;43.422;24.592;2023-12-07T21:33:35;100274.91;;;2.66;100.00
9035;BME280;4552;43.422;24.592;2023-12-07T21:36:02;100273.16;;;2.65;100.00
9035;BME280;4552;43.422;24.592;2023-12-07T22:35:43;100273.25;;;2.70;100.00
9035;BME280;4552;43.422;24.592;2023-12-07T22:48:16;100274.84;;;2.65;100.00
9035;BME280;4552;43.422;24.592;2023-12-07T22:50:44;100273.88;;;2.58;100.00
9035;BME280;4552;43.422;24.592;2023-12-07T23:00:11;100275.13;;;2.77;100.00
9035;BME280;4552;43.422;24.592;2023-12-07T23:02:52;100268.91;;;2.67;100.00
9035;BME280;4552;43.422;24.592;2023-12-07T23:05:20;100279.25;;;2.67;100.00
9035;BME280;4552;43.422;24.592;2023-12-07T23:07:48;100252.28;;;2.56;100.00
9035;BME280;4552;43.422;24.592;2023-12-07T23:47:19;100266.94;;;2.57;100.00
9035;BME280;4552;43.422;24.592;2023-12-07T23:49:49;100270.44;;;2.59;100.00
9035;BME280;4552;43.422;24.592;2023-12-07T23:52:16;100269.06;;;2.73;100.00
9035;BME280;4552;43.422;24.592;2023-12-07T23:54:43;100265.53;;;2.71;100.00
9035;BME280;4552;43.422;24.592;2023-12-07T23:57:12;100257.66;;;2.65;100.00
9035;BME280;4552;43.422;24.592;2023-12-07T23:59:39;100262.75;;;2.62;100.00
